sensor_id;sensor_type;location;lat;lon;timestamp;temperature;humidity
37380;DHT22;23252;-33.992;18.480;2022-12-29T00:00:16;18.80;99.90
37380;DHT22;23252;-33.992;18.480;2022-12-29T00:02:42;18.90;99.90
37380;DHT22;23252;-33.992;18.480;2022-12-29T00:05:09;18.80;99.90
37380;DHT22;23252;-33.992;18.480;2022-12-29T00:07:35;18.80;99.90
37380;DHT22;23252;-33.992;18.480;2022-12-29T00:10:03;18.80;99.90
37380;DHT22;23252;-33.992;18.480;2022-12-29T00:12:29;18.80;99.90
37380;DHT22;23252;-33.992;18.480;2022-12-29T00:15:15;18.80;99.90
37380;DHT22;23252;-33.992;18.480;2022-12-29T00:18:13;18.90;99.90
37380;DHT22;23252;-33.992;18.480;2022-12-29T00:20:40;19.00;99.90
37380;DHT22;23252;-33.992;18.480;2022-12-29T00:23:25;19.00;99.90
37380;DHT22;23252;-33.992;18.480;2022-12-29T00:26:16;19.00;99.90
37380;DHT22;23252;-33.992;18.480;2022-12-29T00:29:02;19.00;99.90
37380;DHT22;23252;-33.992;18.480;2022-12-29T00:31:47;19.00;99.90
37380;DHT22;23252;-33.992;18.480;2022-12-29T00:34:31;19.00;99.90
37380;DHT22;23252;-33.992;18.480;2022-12-29T00:37:16;19.00;99.90
37380;DHT22;23252;-33.992;18.480;2022-12-29T00:39:43;18.90;99.90
37380;DHT22;23252;-33.992;18.480;2022-12-29T00:42:27;18.90;99.90
37380;DHT22;23252;-33.992;18.480;2022-12-29T00:45:12;18.80;99.90
37380;DHT22;23252;-33.992;18.480;2022-12-29T00:47:39;18.80;99.90
37380;DHT22;23252;-33.992;18.480;2022-12-29T00:50:05;18.80;99.90
37380;DHT22;23252;-33.992;18.480;2022-12-29T00:52:32;18.80;99.90
37380;DHT22;23252;-33.992;18.480;2022-12-29T00:54:58;18.70;99.90
37380;DHT22;23252;-33.992;18.480;2022-12-29T00:57:25;18.60;99.90
37380;DHT22;23252;-33.992;18.480;2022-12-29T00:59:51;18.50;99.90
37380;DHT22;23252;-33.992;18.480;2022-12-29T01:02:18;18.50;99.90
37380;DHT22;23252;-33.992;18.480;2022-12-29T01:04:44;18.50;99.90
37380;DHT22;23252;-33.992;18.480;2022-12-29T01:07:11;18.40;99.90
37380;DHT22;23252;-33.992;18.480;2022-12-29T01:09:37;18.40;99.90
37380;DHT22;23252;-33.992;18.480;2022-12-29T01:12:22;18.40;99.90
37380;DHT22;23252;-33.992;18.480;2022-12-29T01:15:07;18.40;99.90
37380;DHT22;23252;-33.992;18.480;2022-12-29T01:17:34;18.50;99.90
37380;DHT22;23252;-33.992;18.480;2022-12-29T01:20:01;18.50;99.90
37380;DHT22;23252;-33.992;18.480;2022-12-29T01:22:28;18.50;99.90
37380;DHT22;23252;-33.992;18.480;2022-12-29T01:24:55;18.40;99.90
37380;DHT22;23252;-33.992;18.480;2022-12-29T01:27:21;18.30;99.90
37380;DHT22;23252;-33.992;18.480;2022-12-29T01:29:48;18.20;99.90
37380;DHT22;23252;-33.992;18.480;2022-12-29T01:32:14;18.10;99.90
37380;DHT22;23252;-33.992;18.480;2022-12-29T01:34:41;18.10;99.90
37380;DHT22;23252;-33.992;18.480;2022-12-29T01:37:07;18.00;99.90
37380;DHT22;23252;-33.992;18.480;2022-12-29T01:39:36;18.00;99.90
37380;DHT22;23252;-33.992;18.480;2022-12-29T01:42:03;17.90;99.90
37380;DHT22;23252;-33.992;18.480;2022-12-29T01:47:41;17.90;99.90
37380;DHT22;23252;-33.992;18.480;2022-12-29T01:50:20;17.90;99.90
37380;DHT22;23252;-33.992;18.480;2022-12-29T01:55:51;17.90;99.90
37380;DHT22;23252;-33.992;18.480;2022-12-29T01:58:24;18.00;99.90
37380;DHT22;23252;-33.992;18.480;2022-12-29T02:00:53;18.00;99.90
37380;DHT22;23252;-33.992;18.480;2022-12-29T02:03:22;17.90;99.90
37380;DHT22;23252;-33.992;18.480;2022-12-29T02:08:21;17.80;99.90
37380;DHT22;23252;-33.992;18.480;2022-12-29T02:10:48;17.80;99.90
37380;DHT22;23252;-33.992;18.480;2022-12-29T02:13:16;17.80;99.90
37380;DHT22;23252;-33.992;18.480;2022-12-29T02:16:12;17.80;99.90
37380;DHT22;23252;-33.992;18.480;2022-12-29T02:24:31;18.00;99.90
37380;DHT22;23252;-33.992;18.480;2022-12-29T02:32:36;18.00;99.90
37380;DHT22;23252;-33.992;18.480;2022-12-29T02:35:30;18.00;99.90
37380;DHT22;23252;-33.992;18.480;2022-12-29T02:40:48;17.90;99.90
37380;DHT22;23252;-33.992;18.480;2022-12-29T02:49:07;18.00;99.90
37380;DHT22;23252;-33.992;18.480;2022-12-29T02:51:58;18.00;99.90
37380;DHT22;23252;-33.992;18.480;2022-12-29T02:54:27;18.00;99.90
37380;DHT22;23252;-33.992;18.480;2022-12-29T03:00:02;18.10;99.90
37380;DHT22;23252;-33.992;18.480;2022-12-29T03:05:58;18.10;99.90
37380;DHT22;23252;-33.992;18.480;2022-12-29T03:09:15;18.00;99.90
37380;DHT22;23252;-33.992;18.480;2022-12-29T03:12:03;18.00;99.90
37380;DHT22;23252;-33.992;18.480;2022-12-29T03:14:44;18.00;99.90
37380;DHT22;23252;-33.992;18.480;2022-12-29T03:17:41;17.90;99.90
37380;DHT22;23252;-33.992;18.480;2022-12-29T03:20:10;17.90;99.90
37380;DHT22;23252;-33.992;18.480;2022-12-29T03:22:44;17.80;99.90
37380;DHT22;23252;-33.992;18.480;2022-12-29T03:25:21;17.80;99.90
37380;DHT22;23252;-33.992;18.480;2022-12-29T03:28:03;17.80;99.90
37380;DHT22;23252;-33.992;18.480;2022-12-29T03:30:32;17.80;99.90
37380;DHT22;23252;-33.992;18.480;2022-12-29T03:33:04;17.80;99.90
37380;DHT22;23252;-33.992;18.480;2022-12-29T03:35:34;17.80;99.90
37380;DHT22;23252;-33.992;18.480;2022-12-29T03:38:22;17.80;99.90
37380;DHT22;23252;-33.992;18.480;2022-12-29T03:40:52;17.80;99.90
37380;DHT22;23252;-33.992;18.480;2022-12-29T03:43:21;17.80;99.90
37380;DHT22;23252;-33.992;18.480;2022-12-29T03:45:49;17.80;99.90
37380;DHT22;23252;-33.992;18.480;2022-12-29T03:48:15;17.80;99.90
37380;DHT22;23252;-33.992;18.480;2022-12-29T03:50:42;17.70;99.90
37380;DHT22;23252;-33.992;18.480;2022-12-29T03:53:08;17.70;99.90
37380;DHT22;23252;-33.992;18.480;2022-12-29T03:55:35;17.70;99.90
37380;DHT22;23252;-33.992;18.480;2022-12-29T03:58:01;17.70;99.90
37380;DHT22;23252;-33.992;18.480;2022-12-29T04:00:28;17.60;99.90
37380;DHT22;23252;-33.992;18.480;2022-12-29T04:02:55;17.60;99.90
37380;DHT22;23252;-33.992;18.480;2022-12-29T04:05:21;17.70;99.90
37380;DHT22;23252;-33.992;18.480;2022-12-29T04:07:48;17.70;99.90
37380;DHT22;23252;-33.992;18.480;2022-12-29T04:10:15;17.80;99.90
37380;DHT22;23252;-33.992;18.480;2022-12-29T04:12:41;17.80;99.90
37380;DHT22;23252;-33.992;18.480;2022-12-29T04:15:09;17.80;99.90
37380;DHT22;23252;-33.992;18.480;2022-12-29T04:17:35;17.80;99.90
37380;DHT22;23252;-33.992;18.480;2022-12-29T04:20:02;17.80;99.90
37380;DHT22;23252;-33.992;18.480;2022-12-29T04:22:47;17.80;99.90
37380;DHT22;23252;-33.992;18.480;2022-12-29T04:25:13;17.80;99.90
37380;DHT22;23252;-33.992;18.480;2022-12-29T04:27:40;17.80;99.90
37380;DHT22;23252;-33.992;18.480;2022-12-29T04:30:07;17.90;99.90
37380;DHT22;23252;-33.992;18.480;2022-12-29T04:32:34;17.90;99.90
37380;DHT22;23252;-33.992;18.480;2022-12-29T04:35:00;17.80;99.90
37380;DHT22;23252;-33.992;18.480;2022-12-29T04:37:27;17.90;99.90
37380;DHT22;23252;-33.992;18.480;2022-12-29T04:39:53;17.90;99.90
37380;DHT22;23252;-33.992;18.480;2022-12-29T04:42:20;17.90;99.90
37380;DHT22;23252;-33.992;18.480;2022-12-29T04:44:46;18.00;99.90
37380;DHT22;23252;-33.992;18.480;2022-12-29T04:47:13;18.00;99.90
37380;DHT22;23252;-33.992;18.480;2022-12-29T04:49:42;18.00;99.90
37380;DHT22;23252;-33.992;18.480;2022-12-29T04:52:08;18.00;99.90
37380;DHT22;23252;-33.992;18.480;2022-12-29T04:54:35;18.10;99.90
37380;DHT22;23252;-33.992;18.480;2022-12-29T04:57:01;18.10;99.90
37380;DHT22;23252;-33.992;18.480;2022-12-29T04:59:28;18.10;99.90
37380;DHT22;23252;-33.992;18.480;2022-12-29T05:01:54;18.20;99.90
37380;DHT22;23252;-33.992;18.480;2022-12-29T05:04:21;18.20;99.90
37380;DHT22;23252;-33.992;18.480;2022-12-29T05:06:47;18.30;99.90
37380;DHT22;23252;-33.992;18.480;2022-12-29T05:09:14;18.20;99.90
37380;DHT22;23252;-33.992;18.480;2022-12-29T05:11:40;18.30;99.90
37380;DHT22;23252;-33.992;18.480;2022-12-29T05:14:07;18.30;99.90
37380;DHT22;23252;-33.992;18.480;2022-12-29T05:16:33;18.40;99.90
37380;DHT22;23252;-33.992;18.480;2022-12-29T05:19:00;18.40;99.90
37380;DHT22;23252;-33.992;18.480;2022-12-29T05:21:26;18.50;99.90
37380;DHT22;23252;-33.992;18.480;2022-12-29T05:23:53;18.50;99.90
37380;DHT22;23252;-33.992;18.480;2022-12-29T05:26:19;18.60;99.90
37380;DHT22;23252;-33.992;18.480;2022-12-29T05:28:46;18.60;99.90
37380;DHT22;23252;-33.992;18.480;2022-12-29T05:31:12;18.70;99.90
37380;DHT22;23252;-33.992;18.480;2022-12-29T05:33:39;18.70;99.90
37380;DHT22;23252;-33.992;18.480;2022-12-29T05:36:07;18.70;99.90
37380;DHT22;23252;-33.992;18.480;2022-12-29T05:38:34;18.70;99.90
37380;DHT22;23252;-33.992;18.480;2022-12-29T05:41:01;18.70;99.90
37380;DHT22;23252;-33.992;18.480;2022-12-29T05:43:27;18.80;99.90
37380;DHT22;23252;-33.992;18.480;2022-12-29T05:45:54;18.80;99.90
37380;DHT22;23252;-33.992;18.480;2022-12-29T05:48:21;18.80;99.90
37380;DHT22;23252;-33.992;18.480;2022-12-29T05:50:48;18.90;99.90
37380;DHT22;23252;-33.992;18.480;2022-12-29T05:53:15;18.90;99.90
37380;DHT22;23252;-33.992;18.480;2022-12-29T05:55:43;19.00;99.90
37380;DHT22;23252;-33.992;18.480;2022-12-29T05:58:10;19.00;99.90
37380;DHT22;23252;-33.992;18.480;2022-12-29T06:00:37;19.00;99.90
37380;DHT22;23252;-33.992;18.480;2022-12-29T06:03:06;19.00;99.90
37380;DHT22;23252;-33.992;18.480;2022-12-29T06:05:33;19.00;99.90
37380;DHT22;23252;-33.992;18.480;2022-12-29T06:07:59;19.10;99.90
37380;DHT22;23252;-33.992;18.480;2022-12-29T06:10:26;19.10;99.90
37380;DHT22;23252;-33.992;18.480;2022-12-29T06:12:53;19.10;99.90
37380;DHT22;23252;-33.992;18.480;2022-12-29T06:15:19;19.20;99.90
37380;DHT22;23252;-33.992;18.480;2022-12-29T06:17:46;19.30;99.90
37380;DHT22;23252;-33.992;18.480;2022-12-29T06:20:12;19.40;99.90
37380;DHT22;23252;-33.992;18.480;2022-12-29T06:22:39;19.50;99.90
37380;DHT22;23252;-33.992;18.480;2022-12-29T06:25:06;19.50;99.90
37380;DHT22;23252;-33.992;18.480;2022-12-29T06:27:33;19.40;99.90
37380;DHT22;23252;-33.992;18.480;2022-12-29T06:29:59;19.40;99.90
37380;DHT22;23252;-33.992;18.480;2022-12-29T06:32:26;19.40;99.90
37380;DHT22;23252;-33.992;18.480;2022-12-29T06:34:52;19.40;99.90
37380;DHT22;23252;-33.992;18.480;2022-12-29T06:37:19;19.30;99.90
37380;DHT22;23252;-33.992;18.480;2022-12-29T06:39:45;19.30;99.90
37380;DHT22;23252;-33.992;18.480;2022-12-29T06:42:12;19.20;99.90
37380;DHT22;23252;-33.992;18.480;2022-12-29T06:44:38;19.20;99.90
37380;DHT22;23252;-33.992;18.480;2022-12-29T06:47:05;19.30;99.90
37380;DHT22;23252;-33.992;18.480;2022-12-29T06:49:31;19.40;99.90
37380;DHT22;23252;-33.992;18.480;2022-12-29T06:51:58;19.40;99.90
37380;DHT22;23252;-33.992;18.480;2022-12-29T06:54:26;19.50;99.90
37380;DHT22;23252;-33.992;18.480;2022-12-29T06:56:53;19.40;99.90
37380;DHT22;23252;-33.992;18.480;2022-12-29T06:59:19;19.50;99.90
37380;DHT22;23252;-33.992;18.480;2022-12-29T07:01:46;19.50;99.90
37380;DHT22;23252;-33.992;18.480;2022-12-29T07:04:12;19.60;99.90
37380;DHT22;23252;-33.992;18.480;2022-12-29T07:06:39;19.70;99.90
37380;DHT22;23252;-33.992;18.480;2022-12-29T07:09:07;19.90;99.90
37380;DHT22;23252;-33.992;18.480;2022-12-29T07:11:34;19.90;99.90
37380;DHT22;23252;-33.992;18.480;2022-12-29T07:14:01;19.80;99.90
37380;DHT22;23252;-33.992;18.480;2022-12-29T07:16:28;19.80;99.90
37380;DHT22;23252;-33.992;18.480;2022-12-29T07:18:57;20.00;99.90
37380;DHT22;23252;-33.992;18.480;2022-12-29T07:21:25;19.90;99.90
37380;DHT22;23252;-33.992;18.480;2022-12-29T07:23:53;19.90;99.90
37380;DHT22;23252;-33.992;18.480;2022-12-29T07:26:19;19.90;99.90
37380;DHT22;23252;-33.992;18.480;2022-12-29T07:28:46;19.90;99.90
37380;DHT22;23252;-33.992;18.480;2022-12-29T07:31:20;19.90;99.90
37380;DHT22;23252;-33.992;18.480;2022-12-29T07:33:47;19.70;99.90
37380;DHT22;23252;-33.992;18.480;2022-12-29T07:36:15;19.70;99.90
37380;DHT22;23252;-33.992;18.480;2022-12-29T07:38:43;19.70;99.90
37380;DHT22;23252;-33.992;18.480;2022-12-29T07:41:09;19.90;99.90
37380;DHT22;23252;-33.992;18.480;2022-12-29T07:43:36;20.00;99.90
37380;DHT22;23252;-33.992;18.480;2022-12-29T07:46:02;20.00;99.90
37380;DHT22;23252;-33.992;18.480;2022-12-29T07:48:29;20.00;99.90
37380;DHT22;23252;-33.992;18.480;2022-12-29T07:50:56;20.00;99.90
37380;DHT22;23252;-33.992;18.480;2022-12-29T07:53:22;20.00;99.90
37380;DHT22;23252;-33.992;18.480;2022-12-29T07:55:49;20.00;99.90
37380;DHT22;23252;-33.992;18.480;2022-12-29T07:58:15;20.00;99.90
37380;DHT22;23252;-33.992;18.480;2022-12-29T08:00:42;20.00;99.90
37380;DHT22;23252;-33.992;18.480;2022-12-29T08:03:08;20.10;99.90
37380;DHT22;23252;-33.992;18.480;2022-12-29T08:05:35;20.20;99.90
37380;DHT22;23252;-33.992;18.480;2022-12-29T08:08:01;20.20;99.90
37380;DHT22;23252;-33.992;18.480;2022-12-29T08:10:28;20.30;99.90
37380;DHT22;23252;-33.992;18.480;2022-12-29T08:12:54;20.30;99.90
37380;DHT22;23252;-33.992;18.480;2022-12-29T08:15:21;20.30;99.90
37380;DHT22;23252;-33.992;18.480;2022-12-29T08:17:47;20.20;99.90
37380;DHT22;23252;-33.992;18.480;2022-12-29T08:20:14;20.10;99.90
37380;DHT22;23252;-33.992;18.480;2022-12-29T08:22:41;20.00;99.90
37380;DHT22;23252;-33.992;18.480;2022-12-29T08:25:08;20.00;99.90
37380;DHT22;23252;-33.992;18.480;2022-12-29T08:27:34;19.90;99.90
37380;DHT22;23252;-33.992;18.480;2022-12-29T08:30:01;19.90;99.90
37380;DHT22;23252;-33.992;18.480;2022-12-29T08:32:28;19.90;99.90
37380;DHT22;23252;-33.992;18.480;2022-12-29T08:34:54;20.10;99.90
37380;DHT22;23252;-33.992;18.480;2022-12-29T08:37:21;20.20;99.90
37380;DHT22;23252;-33.992;18.480;2022-12-29T08:39:48;20.30;99.90
37380;DHT22;23252;-33.992;18.480;2022-12-29T08:42:14;20.30;99.90
37380;DHT22;23252;-33.992;18.480;2022-12-29T08:44:41;20.40;99.90
37380;DHT22;23252;-33.992;18.480;2022-12-29T08:47:09;20.50;99.90
37380;DHT22;23252;-33.992;18.480;2022-12-29T08:49:36;20.60;99.90
37380;DHT22;23252;-33.992;18.480;2022-12-29T08:52:03;20.50;99.90
37380;DHT22;23252;-33.992;18.480;2022-12-29T08:54:30;20.40;99.90
37380;DHT22;23252;-33.992;18.480;2022-12-29T08:56:56;20.40;99.90
37380;DHT22;23252;-33.992;18.480;2022-12-29T08:59:23;20.50;99.90
37380;DHT22;23252;-33.992;18.480;2022-12-29T09:01:50;20.60;99.90
37380;DHT22;23252;-33.992;18.480;2022-12-29T09:04:16;20.70;99.90
37380;DHT22;23252;-33.992;18.480;2022-12-29T09:06:43;20.70;99.90
37380;DHT22;23252;-33.992;18.480;2022-12-29T09:09:10;20.80;99.90
37380;DHT22;23252;-33.992;18.480;2022-12-29T09:11:37;20.70;99.90
37380;DHT22;23252;-33.992;18.480;2022-12-29T09:14:04;20.70;99.90
37380;DHT22;23252;-33.992;18.480;2022-12-29T09:16:30;20.70;99.90
37380;DHT22;23252;-33.992;18.480;2022-12-29T09:18:57;20.70;99.90
37380;DHT22;23252;-33.992;18.480;2022-12-29T09:21:23;20.90;99.90
37380;DHT22;23252;-33.992;18.480;2022-12-29T09:23:50;21.00;99.90
37380;DHT22;23252;-33.992;18.480;2022-12-29T09:26:16;21.20;99.90
37380;DHT22;23252;-33.992;18.480;2022-12-29T09:28:43;21.10;99.90
37380;DHT22;23252;-33.992;18.480;2022-12-29T09:31:10;20.90;99.90
37380;DHT22;23252;-33.992;18.480;2022-12-29T09:33:37;20.90;99.90
37380;DHT22;23252;-33.992;18.480;2022-12-29T09:36:04;21.10;99.90
37380;DHT22;23252;-33.992;18.480;2022-12-29T09:38:30;21.30;99.90
37380;DHT22;23252;-33.992;18.480;2022-12-29T09:41:13;21.30;99.90
37380;DHT22;23252;-33.992;18.480;2022-12-29T09:46:34;21.50;99.90
37380;DHT22;23252;-33.992;18.480;2022-12-29T09:50:20;21.60;99.90
37380;DHT22;23252;-33.992;18.480;2022-12-29T09:52:21;21.50;99.90
37380;DHT22;23252;-33.992;18.480;2022-12-29T09:57:40;21.30;99.90
37380;DHT22;23252;-33.992;18.480;2022-12-29T10:00:17;21.30;99.90
37380;DHT22;23252;-33.992;18.480;2022-12-29T10:02:48;21.10;99.90
37380;DHT22;23252;-33.992;18.480;2022-12-29T10:05:18;21.00;99.90
37380;DHT22;23252;-33.992;18.480;2022-12-29T10:10:38;21.00;99.90
37380;DHT22;23252;-33.992;18.480;2022-12-29T10:13:36;21.10;99.90
37380;DHT22;23252;-33.992;18.480;2022-12-29T10:16:20;21.10;99.90
37380;DHT22;23252;-33.992;18.480;2022-12-29T10:19:12;21.30;99.90
37380;DHT22;23252;-33.992;18.480;2022-12-29T10:21:44;21.20;99.90
37380;DHT22;23252;-33.992;18.480;2022-12-29T10:24:17;21.20;99.90
37380;DHT22;23252;-33.992;18.480;2022-12-29T10:26:47;21.50;99.90
37380;DHT22;23252;-33.992;18.480;2022-12-29T10:31:58;21.50;99.90
37380;DHT22;23252;-33.992;18.480;2022-12-29T10:34:34;21.60;99.90
37380;DHT22;23252;-33.992;18.480;2022-12-29T10:37:14;21.70;99.90
37380;DHT22;23252;-33.992;18.480;2022-12-29T10:39:53;21.70;99.90
37380;DHT22;23252;-33.992;18.480;2022-12-29T10:42:33;21.80;99.90
37380;DHT22;23252;-33.992;18.480;2022-12-29T10:45:03;21.80;99.90
37380;DHT22;23252;-33.992;18.480;2022-12-29T10:47:35;21.90;99.90
37380;DHT22;23252;-33.992;18.480;2022-12-29T10:50:05;22.10;99.90
37380;DHT22;23252;-33.992;18.480;2022-12-29T10:52:33;22.00;99.90
37380;DHT22;23252;-33.992;18.480;2022-12-29T10:55:12;21.70;99.90
37380;DHT22;23252;-33.992;18.480;2022-12-29T10:57:46;21.60;99.90
37380;DHT22;23252;-33.992;18.480;2022-12-29T11:00:17;21.70;99.90
37380;DHT22;23252;-33.992;18.480;2022-12-29T11:05:34;21.90;99.90
37380;DHT22;23252;-33.992;18.480;2022-12-29T11:08:08;21.80;99.90
37380;DHT22;23252;-33.992;18.480;2022-12-29T11:10:41;21.60;99.90
37380;DHT22;23252;-33.992;18.480;2022-12-29T11:13:14;21.70;99.90
37380;DHT22;23252;-33.992;18.480;2022-12-29T11:15:43;21.80;99.90
37380;DHT22;23252;-33.992;18.480;2022-12-29T11:18:31;21.90;99.90
37380;DHT22;23252;-33.992;18.480;2022-12-29T11:21:01;21.80;99.90
37380;DHT22;23252;-33.992;18.480;2022-12-29T11:23:36;21.90;99.90
37380;DHT22;23252;-33.992;18.480;2022-12-29T11:26:16;21.90;99.90
37380;DHT22;23252;-33.992;18.480;2022-12-29T11:29:04;22.10;99.90
37380;DHT22;23252;-33.992;18.480;2022-12-29T11:31:44;22.10;99.90
37380;DHT22;23252;-33.992;18.480;2022-12-29T11:34:24;22.10;99.90
37380;DHT22;23252;-33.992;18.480;2022-12-29T11:39:55;22.30;99.90
37380;DHT22;23252;-33.992;18.480;2022-12-29T11:42:34;22.40;99.90
37380;DHT22;23252;-33.992;18.480;2022-12-29T11:45:20;22.60;99.90
37380;DHT22;23252;-33.992;18.480;2022-12-29T11:47:59;22.80;99.90
37380;DHT22;23252;-33.992;18.480;2022-12-29T11:50:31;22.90;99.90
37380;DHT22;23252;-33.992;18.480;2022-12-29T11:55:37;22.80;99.90
37380;DHT22;23252;-33.992;18.480;2022-12-29T11:58:04;22.80;99.90
37380;DHT22;23252;-33.992;18.480;2022-12-29T12:00:31;23.00;99.90
37380;DHT22;23252;-33.992;18.480;2022-12-29T12:03:08;23.30;99.90
37380;DHT22;23252;-33.992;18.480;2022-12-29T12:05:58;23.60;99.90
37380;DHT22;23252;-33.992;18.480;2022-12-29T12:08:44;23.40;99.90
37380;DHT22;23252;-33.992;18.480;2022-12-29T12:11:28;23.30;99.90
37380;DHT22;23252;-33.992;18.480;2022-12-29T12:16:52;23.20;99.90
37380;DHT22;23252;-33.992;18.480;2022-12-29T12:19:33;23.30;99.90
37380;DHT22;23252;-33.992;18.480;2022-12-29T12:22:31;23.70;99.90
37380;DHT22;23252;-33.992;18.480;2022-12-29T12:25:14;23.70;99.90
37380;DHT22;23252;-33.992;18.480;2022-12-29T12:27:59;23.90;99.90
37380;DHT22;23252;-33.992;18.480;2022-12-29T12:30:30;24.40;99.90
37380;DHT22;23252;-33.992;18.480;2022-12-29T12:38:52;24.70;99.90
37380;DHT22;23252;-33.992;18.480;2022-12-29T12:41:48;24.90;99.90
37380;DHT22;23252;-33.992;18.480;2022-12-29T12:49:43;24.70;99.90
37380;DHT22;23252;-33.992;18.480;2022-12-29T12:55:40;26.10;99.90
37380;DHT22;23252;-33.992;18.480;2022-12-29T13:17:50;26.60;99.90
37380;DHT22;23252;-33.992;18.480;2022-12-29T13:20:39;26.40;99.90
37380;DHT22;23252;-33.992;18.480;2022-12-29T13:23:21;26.30;99.90
37380;DHT22;23252;-33.992;18.480;2022-12-29T13:32:15;25.70;99.90
37380;DHT22;23252;-33.992;18.480;2022-12-29T13:34:31;25.60;99.90
37380;DHT22;23252;-33.992;18.480;2022-12-29T13:37:08;25.40;99.90
37380;DHT22;23252;-33.992;18.480;2022-12-29T13:39:57;25.40;99.90
37380;DHT22;23252;-33.992;18.480;2022-12-29T13:42:23;25.30;99.90
37380;DHT22;23252;-33.992;18.480;2022-12-29T13:45:01;25.60;99.90
37380;DHT22;23252;-33.992;18.480;2022-12-29T13:47:38;26.20;99.90
37380;DHT22;23252;-33.992;18.480;2022-12-29T13:50:19;26.50;99.90
37380;DHT22;23252;-33.992;18.480;2022-12-29T13:55:55;26.20;99.90
37380;DHT22;23252;-33.992;18.480;2022-12-29T13:59:02;26.30;99.90
37380;DHT22;23252;-33.992;18.480;2022-12-29T14:04:14;27.40;99.90
37380;DHT22;23252;-33.992;18.480;2022-12-29T14:06:52;26.70;99.90
37380;DHT22;23252;-33.992;18.480;2022-12-29T14:10:13;26.20;99.90
37380;DHT22;23252;-33.992;18.480;2022-12-29T14:12:40;26.50;99.90
37380;DHT22;23252;-33.992;18.480;2022-12-29T14:17:39;26.70;99.90
37380;DHT22;23252;-33.992;18.480;2022-12-29T14:20:18;27.10;99.90
37380;DHT22;23252;-33.992;18.480;2022-12-29T14:28:28;27.10;99.90
37380;DHT22;23252;-33.992;18.480;2022-12-29T14:30:58;27.50;99.90
37380;DHT22;23252;-33.992;18.480;2022-12-29T14:33:27;26.60;99.90
37380;DHT22;23252;-33.992;18.480;2022-12-29T14:35:55;26.80;99.90
37380;DHT22;23252;-33.992;18.480;2022-12-29T14:38:27;26.90;99.90
37380;DHT22;23252;-33.992;18.480;2022-12-29T14:43:53;25.80;99.90
37380;DHT22;23252;-33.992;18.480;2022-12-29T14:46:21;25.80;99.90
37380;DHT22;23252;-33.992;18.480;2022-12-29T14:48:47;25.80;99.90
37380;DHT22;23252;-33.992;18.480;2022-12-29T14:51:29;26.50;99.90
37380;DHT22;23252;-33.992;18.480;2022-12-29T14:53:56;26.10;99.90
37380;DHT22;23252;-33.992;18.480;2022-12-29T14:56:29;25.90;99.90
37380;DHT22;23252;-33.992;18.480;2022-12-29T14:59:01;26.10;99.90
37380;DHT22;23252;-33.992;18.480;2022-12-29T15:04:22;26.40;99.90
37380;DHT22;23252;-33.992;18.480;2022-12-29T15:06:51;25.90;99.90
37380;DHT22;23252;-33.992;18.480;2022-12-29T15:12:00;25.80;99.90
37380;DHT22;23252;-33.992;18.480;2022-12-29T15:14:32;26.20;99.90
37380;DHT22;23252;-33.992;18.480;2022-12-29T15:16:59;26.20;99.90
37380;DHT22;23252;-33.992;18.480;2022-12-29T15:19:26;25.80;99.90
37380;DHT22;23252;-33.992;18.480;2022-12-29T15:21:54;25.60;99.90
37380;DHT22;23252;-33.992;18.480;2022-12-29T15:24:23;25.70;99.90
37380;DHT22;23252;-33.992;18.480;2022-12-29T15:26:51;25.90;99.90
37380;DHT22;23252;-33.992;18.480;2022-12-29T15:29:35;26.10;99.90
37380;DHT22;23252;-33.992;18.480;2022-12-29T15:34:47;24.80;99.90
37380;DHT22;23252;-33.992;18.480;2022-12-29T15:37:26;24.80;99.90
37380;DHT22;23252;-33.992;18.480;2022-12-29T15:39:54;25.70;99.90
37380;DHT22;23252;-33.992;18.480;2022-12-29T15:42:49;25.80;99.90
37380;DHT22;23252;-33.992;18.480;2022-12-29T15:45:30;25.70;99.90
37380;DHT22;23252;-33.992;18.480;2022-12-29T15:47:58;25.60;99.90
37380;DHT22;23252;-33.992;18.480;2022-12-29T15:50:35;25.50;99.90
37380;DHT22;23252;-33.992;18.480;2022-12-29T15:53:14;25.10;99.90
37380;DHT22;23252;-33.992;18.480;2022-12-29T15:55:44;24.90;99.90
37380;DHT22;23252;-33.992;18.480;2022-12-29T15:58:22;24.70;99.90
37380;DHT22;23252;-33.992;18.480;2022-12-29T16:00:54;24.60;99.90
37380;DHT22;23252;-33.992;18.480;2022-12-29T16:03:24;24.80;99.90
37380;DHT22;23252;-33.992;18.480;2022-12-29T16:06:21;24.60;99.90
37380;DHT22;23252;-33.992;18.480;2022-12-29T16:09:00;24.20;99.90
37380;DHT22;23252;-33.992;18.480;2022-12-29T16:11:34;24.10;99.90
37380;DHT22;23252;-33.992;18.480;2022-12-29T16:14:02;24.10;99.90
37380;DHT22;23252;-33.992;18.480;2022-12-29T16:16:36;24.20;99.90
37380;DHT22;23252;-33.992;18.480;2022-12-29T16:19:27;24.10;99.90
37380;DHT22;23252;-33.992;18.480;2022-12-29T16:21:55;24.20;99.90
37380;DHT22;23252;-33.992;18.480;2022-12-29T16:24:26;24.40;99.90
37380;DHT22;23252;-33.992;18.480;2022-12-29T16:29:43;24.10;99.90
37380;DHT22;23252;-33.992;18.480;2022-12-29T16:32:46;24.30;99.90
37380;DHT22;23252;-33.992;18.480;2022-12-29T16:35:27;24.40;99.90
37380;DHT22;23252;-33.992;18.480;2022-12-29T16:38:17;24.30;99.90
37380;DHT22;23252;-33.992;18.480;2022-12-29T16:43:27;23.30;99.90
37380;DHT22;23252;-33.992;18.480;2022-12-29T16:48:48;21.50;99.90
37380;DHT22;23252;-33.992;18.480;2022-12-29T16:51:42;21.10;99.90
37380;DHT22;23252;-33.992;18.480;2022-12-29T16:54:20;21.00;99.90
37380;DHT22;23252;-33.992;18.480;2022-12-29T16:56:48;21.10;99.90
37380;DHT22;23252;-33.992;18.480;2022-12-29T17:01:56;20.90;99.90
37380;DHT22;23252;-33.992;18.480;2022-12-29T17:04:23;21.00;99.90
37380;DHT22;23252;-33.992;18.480;2022-12-29T17:06:50;20.80;99.90
37380;DHT22;23252;-33.992;18.480;2022-12-29T17:09:18;20.70;99.90
37380;DHT22;23252;-33.992;18.480;2022-12-29T17:11:47;20.70;99.90
37380;DHT22;23252;-33.992;18.480;2022-12-29T17:16:49;20.60;99.90
37380;DHT22;23252;-33.992;18.480;2022-12-29T17:19:18;20.40;99.90
37380;DHT22;23252;-33.992;18.480;2022-12-29T17:21:45;20.30;99.90
37380;DHT22;23252;-33.992;18.480;2022-12-29T17:24:19;20.30;99.90
37380;DHT22;23252;-33.992;18.480;2022-12-29T17:26:49;20.10;99.90
37380;DHT22;23252;-33.992;18.480;2022-12-29T17:29:23;20.00;99.90
37380;DHT22;23252;-33.992;18.480;2022-12-29T17:31:51;19.90;99.90
37380;DHT22;23252;-33.992;18.480;2022-12-29T17:34:19;19.80;99.90
37380;DHT22;23252;-33.992;18.480;2022-12-29T17:36:46;19.70;99.90
37380;DHT22;23252;-33.992;18.480;2022-12-29T17:39:12;19.70;99.90
37380;DHT22;23252;-33.992;18.480;2022-12-29T17:41:39;19.70;99.90
37380;DHT22;23252;-33.992;18.480;2022-12-29T17:44:06;19.70;99.90
37380;DHT22;23252;-33.992;18.480;2022-12-29T17:46:33;19.60;99.90